sensor_id;sensor_type;location;lat;lon;timestamp;P1;durP1;ratioP1;P2;durP2;ratioP2
34711;SDS011;20941;42.408;25.634;2024-02-23T00:00:29;33.00;;;16.95;;
34711;SDS011;20941;42.408;25.634;2024-02-23T00:02:54;27.10;;;14.70;;
34711;SDS011;20941;42.408;25.634;2024-02-23T00:05:21;30.60;;;14.27;;
34711;SDS011;20941;42.408;25.634;2024-02-23T00:07:47;34.10;;;15.88;;
34711;SDS011;20941;42.408;25.634;2024-02-23T00:10:12;29.23;;;14.90;;
34711;SDS011;20941;42.408;25.634;2024-02-23T00:12:38;25.27;;;13.35;;
34711;SDS011;20941;42.408;25.634;2024-02-23T00:15:03;26.73;;;14.45;;
34711;SDS011;20941;42.408;25.634;2024-02-23T00:17:29;26.35;;;13.20;;
34711;SDS011;20941;42.408;25.634;2024-02-23T00:19:55;27.35;;;14.10;;
34711;SDS011;20941;42.408;25.634;2024-02-23T00:22:20;27.73;;;14.93;;
34711;SDS011;20941;42.408;25.634;2024-02-23T00:24:45;25.15;;;14.48;;
34711;SDS011;20941;42.408;25.634;2024-02-23T00:27:11;28.08;;;14.55;;
34711;SDS011;20941;42.408;25.634;2024-02-23T00:29:37;30.83;;;17.20;;
34711;SDS011;20941;42.408;25.634;2024-02-23T00:32:03;31.05;;;15.35;;
34711;SDS011;20941;42.408;25.634;2024-02-23T00:34:28;31.55;;;15.48;;
34711;SDS011;20941;42.408;25.634;2024-02-23T00:36:55;27.20;;;14.30;;
34711;SDS011;20941;42.408;25.634;2024-02-23T00:39:21;29.02;;;15.20;;
34711;SDS011;20941;42.408;25.634;2024-02-23T00:41:46;28.77;;;15.43;;
34711;SDS011;20941;42.408;25.634;2024-02-23T00:44:12;38.90;;;16.65;;
34711;SDS011;20941;42.408;25.634;2024-02-23T00:46:37;31.58;;;16.25;;
34711;SDS011;20941;42.408;25.634;2024-02-23T00:49:05;31.13;;;16.20;;
34711;SDS011;20941;42.408;25.634;2024-02-23T00:51:31;31.13;;;15.27;;
34711;SDS011;20941;42.408;25.634;2024-02-23T00:53:56;29.02;;;15.15;;
34711;SDS011;20941;42.408;25.634;2024-02-23T00:56:22;27.48;;;14.13;;
34711;SDS011;20941;42.408;25.634;2024-02-23T00:58:47;32.53;;;15.50;;
34711;SDS011;20941;42.408;25.634;2024-02-23T01:01:13;31.27;;;16.00;;
34711;SDS011;20941;42.408;25.634;2024-02-23T01:03:38;36.95;;;15.88;;
34711;SDS011;20941;42.408;25.634;2024-02-23T01:06:03;38.33;;;16.73;;
34711;SDS011;20941;42.408;25.634;2024-02-23T01:08:29;35.67;;;17.27;;
34711;SDS011;20941;42.408;25.634;2024-02-23T01:10:54;34.58;;;16.55;;
34711;SDS011;20941;42.408;25.634;2024-02-23T01:13:19;38.38;;;16.85;;
34711;SDS011;20941;42.408;25.634;2024-02-23T01:15:45;29.70;;;15.25;;
34711;SDS011;20941;42.408;25.634;2024-02-23T01:18:10;31.52;;;14.43;;
34711;SDS011;20941;42.408;25.634;2024-02-23T01:20:36;33.63;;;16.27;;
34711;SDS011;20941;42.408;25.634;2024-02-23T01:23:01;29.95;;;14.27;;
34711;SDS011;20941;42.408;25.634;2024-02-23T01:25:27;31.42;;;14.90;;
34711;SDS011;20941;42.408;25.634;2024-02-23T01:27:52;30.48;;;15.82;;
34711;SDS011;20941;42.408;25.634;2024-02-23T01:30:17;28.77;;;15.70;;
34711;SDS011;20941;42.408;25.634;2024-02-23T01:32:44;25.40;;;14.35;;
34711;SDS011;20941;42.408;25.634;2024-02-23T01:35:10;28.08;;;15.05;;
34711;SDS011;20941;42.408;25.634;2024-02-23T01:37:35;34.53;;;16.35;;
34711;SDS011;20941;42.408;25.634;2024-02-23T01:40:00;27.13;;;14.18;;
34711;SDS011;20941;42.408;25.634;2024-02-23T01:42:26;26.35;;;14.50;;
34711;SDS011;20941;42.408;25.634;2024-02-23T01:44:51;27.70;;;15.00;;
34711;SDS011;20941;42.408;25.634;2024-02-23T01:47:17;26.92;;;14.30;;
34711;SDS011;20941;42.408;25.634;2024-02-23T01:49:45;31.40;;;16.40;;
34711;SDS011;20941;42.408;25.634;2024-02-23T01:52:12;26.38;;;14.50;;
34711;SDS011;20941;42.408;25.634;2024-02-23T01:54:38;31.30;;;15.52;;
34711;SDS011;20941;42.408;25.634;2024-02-23T01:57:04;28.13;;;14.75;;
34711;SDS011;20941;42.408;25.634;2024-02-23T01:59:29;28.58;;;14.98;;
34711;SDS011;20941;42.408;25.634;2024-02-23T02:01:55;35.65;;;16.05;;
34711;SDS011;20941;42.408;25.634;2024-02-23T02:04:21;33.75;;;15.90;;
34711;SDS011;20941;42.408;25.634;2024-02-23T02:06:46;36.50;;;15.93;;
34711;SDS011;20941;42.408;25.634;2024-02-23T02:09:12;36.22;;;16.60;;
34711;SDS011;20941;42.408;25.634;2024-02-23T02:11:47;36.33;;;17.33;;
34711;SDS011;20941;42.408;25.634;2024-02-23T02:14:13;39.58;;;16.55;;
34711;SDS011;20941;42.408;25.634;2024-02-23T02:16:39;39.97;;;17.05;;
34711;SDS011;20941;42.408;25.634;2024-02-23T02:19:04;40.78;;;16.10;;
34711;SDS011;20941;42.408;25.634;2024-02-23T02:21:30;49.22;;;17.52;;
34711;SDS011;20941;42.408;25.634;2024-02-23T02:23:56;42.95;;;16.08;;
34711;SDS011;20941;42.408;25.634;2024-02-23T02:26:21;38.53;;;16.83;;
34711;SDS011;20941;42.408;25.634;2024-02-23T02:28:48;36.40;;;15.82;;
34711;SDS011;20941;42.408;25.634;2024-02-23T02:31:13;31.75;;;16.33;;
34711;SDS011;20941;42.408;25.634;2024-02-23T02:33:39;39.33;;;17.00;;
34711;SDS011;20941;42.408;25.634;2024-02-23T02:36:05;36.83;;;16.95;;
34711;SDS011;20941;42.408;25.634;2024-02-23T02:38:30;35.78;;;16.33;;
34711;SDS011;20941;42.408;25.634;2024-02-23T02:40:58;47.55;;;18.08;;
34711;SDS011;20941;42.408;25.634;2024-02-23T02:43:25;45.10;;;18.67;;
34711;SDS011;20941;42.408;25.634;2024-02-23T02:45:50;36.78;;;17.05;;
34711;SDS011;20941;42.408;25.634;2024-02-23T02:48:16;39.90;;;17.10;;
34711;SDS011;20941;42.408;25.634;2024-02-23T02:50:42;37.25;;;17.08;;
34711;SDS011;20941;42.408;25.634;2024-02-23T02:53:07;33.85;;;17.48;;
34711;SDS011;20941;42.408;25.634;2024-02-23T02:55:33;32.38;;;16.13;;
34711;SDS011;20941;42.408;25.634;2024-02-23T02:57:58;37.45;;;17.50;;
34711;SDS011;20941;42.408;25.634;2024-02-23T03:00:24;38.40;;;17.45;;
34711;SDS011;20941;42.408;25.634;2024-02-23T03:02:49;41.88;;;17.85;;
34711;SDS011;20941;42.408;25.634;2024-02-23T03:05:14;42.25;;;17.70;;
34711;SDS011;20941;42.408;25.634;2024-02-23T03:07:40;44.10;;;18.00;;
34711;SDS011;20941;42.408;25.634;2024-02-23T03:10:06;38.97;;;17.67;;
34711;SDS011;20941;42.408;25.634;2024-02-23T03:12:31;43.08;;;19.60;;
34711;SDS011;20941;42.408;25.634;2024-02-23T03:14:57;39.53;;;16.85;;
34711;SDS011;20941;42.408;25.634;2024-02-23T03:17:22;40.15;;;17.40;;
34711;SDS011;20941;42.408;25.634;2024-02-23T03:19:48;41.85;;;18.50;;
34711;SDS011;20941;42.408;25.634;2024-02-23T03:22:15;37.15;;;17.88;;
34711;SDS011;20941;42.408;25.634;2024-02-23T03:24:40;26.20;;;13.02;;
34711;SDS011;20941;42.408;25.634;2024-02-23T03:27:06;28.98;;;12.80;;
34711;SDS011;20941;42.408;25.634;2024-02-23T03:29:31;32.00;;;15.63;;
34711;SDS011;20941;42.408;25.634;2024-02-23T03:31:57;33.08;;;13.02;;
34711;SDS011;20941;42.408;25.634;2024-02-23T03:34:22;38.03;;;17.27;;
34711;SDS011;20941;42.408;25.634;2024-02-23T03:36:48;37.58;;;16.23;;
34711;SDS011;20941;42.408;25.634;2024-02-23T03:39:13;41.00;;;18.02;;
34711;SDS011;20941;42.408;25.634;2024-02-23T03:41:39;37.72;;;17.17;;
34711;SDS011;20941;42.408;25.634;2024-02-23T03:44:04;47.17;;;18.08;;
34711;SDS011;20941;42.408;25.634;2024-02-23T03:46:30;31.65;;;14.23;;
34711;SDS011;20941;42.408;25.634;2024-02-23T03:48:55;35.38;;;16.02;;
34711;SDS011;20941;42.408;25.634;2024-02-23T03:51:21;41.40;;;15.60;;
34711;SDS011;20941;42.408;25.634;2024-02-23T03:53:46;54.22;;;19.02;;
34711;SDS011;20941;42.408;25.634;2024-02-23T03:56:12;49.05;;;17.17;;
34711;SDS011;20941;42.408;25.634;2024-02-23T03:58:38;42.33;;;17.63;;
34711;SDS011;20941;42.408;25.634;2024-02-23T04:01:03;49.78;;;19.20;;
34711;SDS011;20941;42.408;25.634;2024-02-23T04:03:28;84.65;;;21.92;;
34711;SDS011;20941;42.408;25.634;2024-02-23T04:05:54;67.15;;;22.20;;
34711;SDS011;20941;42.408;25.634;2024-02-23T04:08:19;44.03;;;17.90;;
34711;SDS011;20941;42.408;25.634;2024-02-23T04:10:45;43.47;;;19.05;;
34711;SDS011;20941;42.408;25.634;2024-02-23T04:13:10;49.58;;;19.63;;
34711;SDS011;20941;42.408;25.634;2024-02-23T04:15:39;49.60;;;18.25;;
34711;SDS011;20941;42.408;25.634;2024-02-23T04:18:04;38.72;;;16.52;;
34711;SDS011;20941;42.408;25.634;2024-02-23T04:20:30;53.20;;;20.08;;
34711;SDS011;20941;42.408;25.634;2024-02-23T04:22:55;70.05;;;21.25;;
34711;SDS011;20941;42.408;25.634;2024-02-23T04:25:20;57.97;;;20.80;;
34711;SDS011;20941;42.408;25.634;2024-02-23T04:27:46;54.78;;;20.08;;
34711;SDS011;20941;42.408;25.634;2024-02-23T04:30:11;38.92;;;18.58;;
34711;SDS011;20941;42.408;25.634;2024-02-23T04:32:37;36.05;;;16.73;;
34711;SDS011;20941;42.408;25.634;2024-02-23T04:35:03;33.25;;;16.55;;
34711;SDS011;20941;42.408;25.634;2024-02-23T04:37:29;50.17;;;18.30;;
34711;SDS011;20941;42.408;25.634;2024-02-23T04:39:54;57.38;;;19.60;;
34711;SDS011;20941;42.408;25.634;2024-02-23T04:42:19;42.50;;;18.08;;
34711;SDS011;20941;42.408;25.634;2024-02-23T04:44:45;47.20;;;20.08;;
34711;SDS011;20941;42.408;25.634;2024-02-23T04:47:11;33.65;;;17.20;;
34711;SDS011;20941;42.408;25.634;2024-02-23T04:49:36;46.25;;;17.85;;
34711;SDS011;20941;42.408;25.634;2024-02-23T04:52:02;71.15;;;22.60;;
34711;SDS011;20941;42.408;25.634;2024-02-23T04:54:28;64.45;;;21.88;;
34711;SDS011;20941;42.408;25.634;2024-02-23T04:56:53;81.63;;;21.45;;
34711;SDS011;20941;42.408;25.634;2024-02-23T04:59:19;43.00;;;16.27;;
34711;SDS011;20941;42.408;25.634;2024-02-23T05:01:44;37.53;;;18.15;;
34711;SDS011;20941;42.408;25.634;2024-02-23T05:04:09;40.85;;;19.08;;
34711;SDS011;20941;42.408;25.634;2024-02-23T05:06:35;28.45;;;12.73;;
34711;SDS011;20941;42.408;25.634;2024-02-23T05:09:01;39.25;;;18.70;;
34711;SDS011;20941;42.408;25.634;2024-02-23T05:11:26;45.53;;;18.23;;
34711;SDS011;20941;42.408;25.634;2024-02-23T05:13:52;44.03;;;18.80;;
34711;SDS011;20941;42.408;25.634;2024-02-23T05:16:17;39.25;;;18.58;;
34711;SDS011;20941;42.408;25.634;2024-02-23T05:18:43;39.13;;;16.63;;
34711;SDS011;20941;42.408;25.634;2024-02-23T05:21:08;38.03;;;17.17;;
34711;SDS011;20941;42.408;25.634;2024-02-23T05:23:37;42.70;;;19.60;;
34711;SDS011;20941;42.408;25.634;2024-02-23T05:26:02;36.88;;;15.10;;
34711;SDS011;20941;42.408;25.634;2024-02-23T05:28:28;39.83;;;18.65;;
34711;SDS011;20941;42.408;25.634;2024-02-23T05:30:54;28.58;;;13.30;;
34711;SDS011;20941;42.408;25.634;2024-02-23T05:33:19;34.65;;;16.83;;
34711;SDS011;20941;42.408;25.634;2024-02-23T05:35:46;37.75;;;18.02;;
34711;SDS011;20941;42.408;25.634;2024-02-23T05:38:14;34.88;;;16.42;;
34711;SDS011;20941;42.408;25.634;2024-02-23T05:40:39;33.15;;;16.65;;
34711;SDS011;20941;42.408;25.634;2024-02-23T05:43:04;32.78;;;17.02;;
34711;SDS011;20941;42.408;25.634;2024-02-23T05:45:30;33.88;;;17.02;;
34711;SDS011;20941;42.408;25.634;2024-02-23T05:47:56;36.40;;;16.77;;
34711;SDS011;20941;42.408;25.634;2024-02-23T05:50:21;32.08;;;15.82;;
34711;SDS011;20941;42.408;25.634;2024-02-23T05:52:46;28.33;;;14.90;;
34711;SDS011;20941;42.408;25.634;2024-02-23T05:55:12;38.75;;;16.13;;
34711;SDS011;20941;42.408;25.634;2024-02-23T05:57:37;53.65;;;15.82;;
34711;SDS011;20941;42.408;25.634;2024-02-23T06:00:03;47.85;;;17.40;;
34711;SDS011;20941;42.408;25.634;2024-02-23T06:02:29;87.22;;;25.90;;
34711;SDS011;20941;42.408;25.634;2024-02-23T06:04:54;111.35;;;32.28;;
34711;SDS011;20941;42.408;25.634;2024-02-23T06:07:20;45.33;;;18.00;;
34711;SDS011;20941;42.408;25.634;2024-02-23T06:09:52;46.10;;;16.95;;
34711;SDS011;20941;42.408;25.634;2024-02-23T06:12:17;54.67;;;19.50;;
34711;SDS011;20941;42.408;25.634;2024-02-23T06:14:42;69.28;;;21.38;;
34711;SDS011;20941;42.408;25.634;2024-02-23T06:17:08;68.05;;;23.42;;
34711;SDS011;20941;42.408;25.634;2024-02-23T06:19:33;54.22;;;21.30;;
34711;SDS011;20941;42.408;25.634;2024-02-23T06:21:59;78.13;;;25.15;;
34711;SDS011;20941;42.408;25.634;2024-02-23T06:24:24;87.80;;;31.55;;
34711;SDS011;20941;42.408;25.634;2024-02-23T06:26:49;56.85;;;22.08;;
34711;SDS011;20941;42.408;25.634;2024-02-23T06:29:16;58.88;;;21.65;;
34711;SDS011;20941;42.408;25.634;2024-02-23T06:31:41;50.50;;;20.30;;
34711;SDS011;20941;42.408;25.634;2024-02-23T06:34:07;36.00;;;16.88;;
34711;SDS011;20941;42.408;25.634;2024-02-23T06:36:34;33.05;;;15.55;;
34711;SDS011;20941;42.408;25.634;2024-02-23T06:39:00;47.50;;;18.40;;
34711;SDS011;20941;42.408;25.634;2024-02-23T06:41:25;40.13;;;18.73;;
34711;SDS011;20941;42.408;25.634;2024-02-23T06:43:51;36.33;;;17.75;;
34711;SDS011;20941;42.408;25.634;2024-02-23T06:46:18;38.10;;;18.40;;
34711;SDS011;20941;42.408;25.634;2024-02-23T06:48:45;33.67;;;17.00;;
34711;SDS011;20941;42.408;25.634;2024-02-23T06:51:10;35.22;;;16.25;;
34711;SDS011;20941;42.408;25.634;2024-02-23T06:53:36;29.92;;;16.27;;
34711;SDS011;20941;42.408;25.634;2024-02-23T06:56:02;37.95;;;17.48;;
34711;SDS011;20941;42.408;25.634;2024-02-23T06:58:28;38.45;;;17.27;;
34711;SDS011;20941;42.408;25.634;2024-02-23T07:00:53;30.60;;;17.02;;
34711;SDS011;20941;42.408;25.634;2024-02-23T07:03:19;33.45;;;16.70;;
34711;SDS011;20941;42.408;25.634;2024-02-23T07:05:44;39.38;;;17.67;;
34711;SDS011;20941;42.408;25.634;2024-02-23T07:08:11;31.42;;;16.00;;
34711;SDS011;20941;42.408;25.634;2024-02-23T07:10:36;29.85;;;15.80;;
34711;SDS011;20941;42.408;25.634;2024-02-23T07:13:02;31.25;;;17.05;;
34711;SDS011;20941;42.408;25.634;2024-02-23T07:15:27;30.60;;;16.20;;
34711;SDS011;20941;42.408;25.634;2024-02-23T07:17:53;29.92;;;15.90;;
34711;SDS011;20941;42.408;25.634;2024-02-23T07:20:18;39.13;;;16.42;;
34711;SDS011;20941;42.408;25.634;2024-02-23T07:22:47;32.40;;;15.85;;
34711;SDS011;20941;42.408;25.634;2024-02-23T07:25:16;32.40;;;17.08;;
34711;SDS011;20941;42.408;25.634;2024-02-23T07:27:41;30.05;;;17.10;;
34711;SDS011;20941;42.408;25.634;2024-02-23T07:30:07;36.17;;;16.98;;
34711;SDS011;20941;42.408;25.634;2024-02-23T07:32:32;35.15;;;17.88;;
34711;SDS011;20941;42.408;25.634;2024-02-23T07:34:58;35.35;;;17.98;;
34711;SDS011;20941;42.408;25.634;2024-02-23T07:37:25;34.03;;;18.05;;
34711;SDS011;20941;42.408;25.634;2024-02-23T07:39:51;38.10;;;18.20;;
34711;SDS011;20941;42.408;25.634;2024-02-23T07:42:16;38.92;;;18.98;;
34711;SDS011;20941;42.408;25.634;2024-02-23T07:44:43;41.17;;;18.90;;
34711;SDS011;20941;42.408;25.634;2024-02-23T07:47:09;48.28;;;18.38;;
34711;SDS011;20941;42.408;25.634;2024-02-23T07:49:35;40.15;;;18.23;;
34711;SDS011;20941;42.408;25.634;2024-02-23T07:52:00;40.47;;;18.55;;
34711;SDS011;20941;42.408;25.634;2024-02-23T07:54:25;37.35;;;18.15;;
34711;SDS011;20941;42.408;25.634;2024-02-23T07:56:51;39.00;;;17.42;;
34711;SDS011;20941;42.408;25.634;2024-02-23T07:59:16;37.95;;;17.73;;
34711;SDS011;20941;42.408;25.634;2024-02-23T08:01:42;42.10;;;18.95;;
34711;SDS011;20941;42.408;25.634;2024-02-23T08:04:07;41.00;;;18.92;;
34711;SDS011;20941;42.408;25.634;2024-02-23T08:06:33;40.35;;;18.33;;
34711;SDS011;20941;42.408;25.634;2024-02-23T08:08:59;35.40;;;17.38;;
34711;SDS011;20941;42.408;25.634;2024-02-23T08:11:24;42.90;;;18.10;;
34711;SDS011;20941;42.408;25.634;2024-02-23T08:13:50;38.38;;;20.10;;
34711;SDS011;20941;42.408;25.634;2024-02-23T08:16:16;32.40;;;17.13;;
34711;SDS011;20941;42.408;25.634;2024-02-23T08:18:42;39.88;;;17.88;;
34711;SDS011;20941;42.408;25.634;2024-02-23T08:21:07;37.45;;;18.42;;
34711;SDS011;20941;42.408;25.634;2024-02-23T08:23:34;32.85;;;17.55;;
34711;SDS011;20941;42.408;25.634;2024-02-23T08:26:00;39.42;;;17.45;;
34711;SDS011;20941;42.408;25.634;2024-02-23T08:28:25;38.30;;;19.00;;
34711;SDS011;20941;42.408;25.634;2024-02-23T08:30:51;35.05;;;17.13;;
34711;SDS011;20941;42.408;25.634;2024-02-23T08:33:18;34.30;;;18.58;;
34711;SDS011;20941;42.408;25.634;2024-02-23T08:35:43;38.55;;;18.73;;
34711;SDS011;20941;42.408;25.634;2024-02-23T08:38:09;36.47;;;17.67;;
34711;SDS011;20941;42.408;25.634;2024-02-23T08:40:34;37.30;;;18.70;;
34711;SDS011;20941;42.408;25.634;2024-02-23T08:42:59;34.38;;;17.27;;
34711;SDS011;20941;42.408;25.634;2024-02-23T08:45:25;36.97;;;18.05;;
34711;SDS011;20941;42.408;25.634;2024-02-23T08:47:50;37.42;;;17.60;;
34711;SDS011;20941;42.408;25.634;2024-02-23T08:50:16;37.65;;;16.75;;
34711;SDS011;20941;42.408;25.634;2024-02-23T08:52:41;32.97;;;18.17;;
34711;SDS011;20941;42.408;25.634;2024-02-23T08:55:07;37.33;;;19.52;;
34711;SDS011;20941;42.408;25.634;2024-02-23T08:57:32;34.35;;;17.02;;
34711;SDS011;20941;42.408;25.634;2024-02-23T08:59:57;32.97;;;16.85;;
34711;SDS011;20941;42.408;25.634;2024-02-23T09:02:26;34.50;;;17.85;;
34711;SDS011;20941;42.408;25.634;2024-02-23T09:04:52;30.77;;;16.90;;
34711;SDS011;20941;42.408;25.634;2024-02-23T09:07:17;32.97;;;16.35;;
34711;SDS011;20941;42.408;25.634;2024-02-23T09:09:46;33.75;;;16.85;;
34711;SDS011;20941;42.408;25.634;2024-02-23T09:12:11;34.97;;;16.85;;
34711;SDS011;20941;42.408;25.634;2024-02-23T09:14:39;41.50;;;17.33;;
34711;SDS011;20941;42.408;25.634;2024-02-23T09:17:06;32.88;;;16.27;;
34711;SDS011;20941;42.408;25.634;2024-02-23T09:19:33;30.63;;;16.30;;
34711;SDS011;20941;42.408;25.634;2024-02-23T09:24:24;27.38;;;15.63;;
34711;SDS011;20941;42.408;25.634;2024-02-23T09:26:51;32.50;;;14.50;;
34711;SDS011;20941;42.408;25.634;2024-02-23T09:29:22;34.60;;;16.17;;
34711;SDS011;20941;42.408;25.634;2024-02-23T09:31:52;37.42;;;16.58;;
34711;SDS011;20941;42.408;25.634;2024-02-23T09:34:27;34.25;;;15.63;;
34711;SDS011;20941;42.408;25.634;2024-02-23T09:36:55;30.25;;;15.15;;
34711;SDS011;20941;42.408;25.634;2024-02-23T09:39:21;28.63;;;15.50;;
34711;SDS011;20941;42.408;25.634;2024-02-23T09:41:48;30.08;;;15.68;;
34711;SDS011;20941;42.408;25.634;2024-02-23T09:44:15;26.58;;;15.85;;
34711;SDS011;20941;42.408;25.634;2024-02-23T09:46:42;30.58;;;14.15;;
34711;SDS011;20941;42.408;25.634;2024-02-23T09:49:08;30.20;;;14.50;;
34711;SDS011;20941;42.408;25.634;2024-02-23T09:51:36;33.45;;;14.93;;
34711;SDS011;20941;42.408;25.634;2024-02-23T09:54:02;24.67;;;13.25;;
34711;SDS011;20941;42.408;25.634;2024-02-23T09:56:28;25.27;;;12.77;;
34711;SDS011;20941;42.408;25.634;2024-02-23T09:58:57;28.60;;;13.82;;
34711;SDS011;20941;42.408;25.634;2024-02-23T10:01:28;27.63;;;13.00;;
34711;SDS011;20941;42.408;25.634;2024-02-23T10:03:57;27.92;;;13.90;;
34711;SDS011;20941;42.408;25.634;2024-02-23T10:06:26;23.77;;;13.40;;
34711;SDS011;20941;42.408;25.634;2024-02-23T10:08:51;20.58;;;12.70;;
34711;SDS011;20941;42.408;25.634;2024-02-23T10:11:22;23.20;;;11.35;;
34711;SDS011;20941;42.408;25.634;2024-02-23T10:13:48;31.38;;;12.50;;
34711;SDS011;20941;42.408;25.634;2024-02-23T10:16:20;20.17;;;11.68;;
34711;SDS011;20941;42.408;25.634;2024-02-23T10:18:46;20.85;;;11.00;;
34711;SDS011;20941;42.408;25.634;2024-02-23T10:21:14;18.95;;;11.38;;
34711;SDS011;20941;42.408;25.634;2024-02-23T10:23:39;23.08;;;11.82;;
34711;SDS011;20941;42.408;25.634;2024-02-23T10:26:05;17.00;;;10.60;;
34711;SDS011;20941;42.408;25.634;2024-02-23T10:28:31;25.52;;;11.45;;
34711;SDS011;20941;42.408;25.634;2024-02-23T10:30:56;29.77;;;10.98;;
34711;SDS011;20941;42.408;25.634;2024-02-23T10:33:26;24.50;;;12.10;;
34711;SDS011;20941;42.408;25.634;2024-02-23T10:36:01;17.30;;;10.52;;
34711;SDS011;20941;42.408;25.634;2024-02-23T10:38:29;19.20;;;10.18;;
34711;SDS011;20941;42.408;25.634;2024-02-23T10:40:57;25.77;;;11.50;;
34711;SDS011;20941;42.408;25.634;2024-02-23T10:43:26;25.95;;;11.50;;
34711;SDS011;20941;42.408;25.634;2024-02-23T10:45:53;21.55;;;11.77;;
34711;SDS011;20941;42.408;25.634;2024-02-23T10:48:18;24.42;;;12.70;;
34711;SDS011;20941;42.408;25.634;2024-02-23T10:50:44;24.08;;;12.63;;
34711;SDS011;20941;42.408;25.634;2024-02-23T10:53:10;26.02;;;12.60;;
34711;SDS011;20941;42.408;25.634;2024-02-23T10:55:37;23.48;;;12.52;;
34711;SDS011;20941;42.408;25.634;2024-02-23T10:58:03;21.90;;;12.15;;
34711;SDS011;20941;42.408;25.634;2024-02-23T11:00:32;21.88;;;11.75;;
34711;SDS011;20941;42.408;25.634;2024-02-23T11:02:58;24.83;;;12.98;;
34711;SDS011;20941;42.408;25.634;2024-02-23T11:05:27;26.40;;;12.23;;
34711;SDS011;20941;42.408;25.634;2024-02-23T11:07:59;23.45;;;13.48;;
34711;SDS011;20941;42.408;25.634;2024-02-23T11:10:27;23.80;;;13.05;;
34711;SDS011;20941;42.408;25.634;2024-02-23T11:12:58;20.70;;;11.65;;
34711;SDS011;20941;42.408;25.634;2024-02-23T11:15:29;25.20;;;12.63;;
34711;SDS011;20941;42.408;25.634;2024-02-23T11:17:55;18.63;;;11.55;;
34711;SDS011;20941;42.408;25.634;2024-02-23T11:20:21;19.60;;;9.77;;
34711;SDS011;20941;42.408;25.634;2024-02-23T11:22:51;16.45;;;8.98;;
34711;SDS011;20941;42.408;25.634;2024-02-23T11:25:36;16.55;;;8.38;;
34711;SDS011;20941;42.408;25.634;2024-02-23T11:28:02;14.85;;;9.02;;
34711;SDS011;20941;42.408;25.634;2024-02-23T11:30:27;14.10;;;9.15;;
34711;SDS011;20941;42.408;25.634;2024-02-23T11:32:57;15.25;;;8.18;;
34711;SDS011;20941;42.408;25.634;2024-02-23T11:35:25;14.52;;;8.13;;
34711;SDS011;20941;42.408;25.634;2024-02-23T11:37:54;20.33;;;8.98;;
34711;SDS011;20941;42.408;25.634;2024-02-23T11:40:30;18.88;;;8.68;;
34711;SDS011;20941;42.408;25.634;2024-02-23T11:43:06;19.42;;;9.07;;
34711;SDS011;20941;42.408;25.634;2024-02-23T11:45:32;11.95;;;7.13;;
34711;SDS011;20941;42.408;25.634;2024-02-23T11:47:57;7.70;;;5.93;;
34711;SDS011;20941;42.408;25.634;2024-02-23T11:50:24;15.13;;;6.80;;
34711;SDS011;20941;42.408;25.634;2024-02-23T11:52:49;9.20;;;7.05;;
34711;SDS011;20941;42.408;25.634;2024-02-23T11:55:19;9.82;;;7.07;;
34711;SDS011;20941;42.408;25.634;2024-02-23T11:57:48;12.02;;;6.40;;
34711;SDS011;20941;42.408;25.634;2024-02-23T12:00:13;13.23;;;6.45;;
34711;SDS011;20941;42.408;25.634;2024-02-23T12:02:40;11.43;;;7.20;;
34711;SDS011;20941;42.408;25.634;2024-02-23T12:05:05;18.20;;;9.80;;
34711;SDS011;20941;42.408;25.634;2024-02-23T12:07:33;9.35;;;5.70;;
34711;SDS011;20941;42.408;25.634;2024-02-23T12:09:59;10.13;;;6.32;;
34711;SDS011;20941;42.408;25.634;2024-02-23T12:12:25;29.50;;;7.45;;
34711;SDS011;20941;42.408;25.634;2024-02-23T12:14:51;16.55;;;6.18;;
34711;SDS011;20941;42.408;25.634;2024-02-23T12:17:16;6.65;;;5.03;;
34711;SDS011;20941;42.408;25.634;2024-02-23T12:19:42;12.73;;;6.95;;
34711;SDS011;20941;42.408;25.634;2024-02-23T12:22:07;16.70;;;7.10;;
34711;SDS011;20941;42.408;25.634;2024-02-23T12:24:34;7.07;;;5.25;;
34711;SDS011;20941;42.408;25.634;2024-02-23T12:27:00;9.35;;;5.55;;
34711;SDS011;20941;42.408;25.634;2024-02-23T12:29:25;8.60;;;5.05;;
34711;SDS011;20941;42.408;25.634;2024-02-23T12:32:01;12.48;;;5.10;;
34711;SDS011;20941;42.408;25.634;2024-02-23T12:34:27;11.60;;;5.60;;
34711;SDS011;20941;42.408;25.634;2024-02-23T12:36:52;10.85;;;5.85;;
34711;SDS011;20941;42.408;25.634;2024-02-23T12:39:18;14.95;;;5.47;;
34711;SDS011;20941;42.408;25.634;2024-02-23T12:41:44;9.10;;;4.85;;
34711;SDS011;20941;42.408;25.634;2024-02-23T12:44:14;5.72;;;4.15;;
34711;SDS011;20941;42.408;25.634;2024-02-23T12:46:40;9.50;;;4.80;;
34711;SDS011;20941;42.408;25.634;2024-02-23T12:49:05;7.57;;;4.15;;
34711;SDS011;20941;42.408;25.634;2024-02-23T12:51:31;6.95;;;4.15;;
34711;SDS011;20941;42.408;25.634;2024-02-23T12:53:56;8.48;;;3.95;;
34711;SDS011;20941;42.408;25.634;2024-02-23T12:56:22;7.53;;;4.80;;
34711;SDS011;20941;42.408;25.634;2024-02-23T12:58:47;11.10;;;4.88;;
34711;SDS011;20941;42.408;25.634;2024-02-23T13:01:31;7.57;;;4.25;;
34711;SDS011;20941;42.408;25.634;2024-02-23T13:03:59;11.32;;;6.72;;
34711;SDS011;20941;42.408;25.634;2024-02-23T13:06:25;13.75;;;5.18;;
34711;SDS011;20941;42.408;25.634;2024-02-23T13:08:50;10.13;;;4.97;;
34711;SDS011;20941;42.408;25.634;2024-02-23T13:11:16;7.40;;;5.13;;
34711;SDS011;20941;42.408;25.634;2024-02-23T13:13:41;7.10;;;5.53;;
34711;SDS011;20941;42.408;25.634;2024-02-23T13:16:07;13.63;;;5.40;;
34711;SDS011;20941;42.408;25.634;2024-02-23T13:18:33;9.30;;;5.35;;
34711;SDS011;20941;42.408;25.634;2024-02-23T13:20:59;8.95;;;5.60;;
34711;SDS011;20941;42.408;25.634;2024-02-23T13:23:24;10.38;;;5.75;;
34711;SDS011;20941;42.408;25.634;2024-02-23T13:25:50;10.60;;;5.90;;
34711;SDS011;20941;42.408;25.634;2024-02-23T13:28:15;6.47;;;4.97;;
34711;SDS011;20941;42.408;25.634;2024-02-23T13:30:41;7.95;;;5.45;;
34711;SDS011;20941;42.408;25.634;2024-02-23T13:33:10;9.02;;;5.50;;
34711;SDS011;20941;42.408;25.634;2024-02-23T13:35:36;10.88;;;5.78;;
34711;SDS011;20941;42.408;25.634;2024-02-23T13:38:03;8.93;;;6.13;;
34711;SDS011;20941;42.408;25.634;2024-02-23T13:40:34;7.47;;;4.90;;
34711;SDS011;20941;42.408;25.634;2024-02-23T13:43:00;17.20;;;6.50;;
34711;SDS011;20941;42.408;25.634;2024-02-23T13:45:25;15.55;;;7.30;;
34711;SDS011;20941;42.408;25.634;2024-02-23T13:50:35;23.10;;;8.13;;
34711;SDS011;20941;42.408;25.634;2024-02-23T13:53:16;14.23;;;6.75;;
34711;SDS011;20941;42.408;25.634;2024-02-23T13:59:33;74.40;;;16.37;;
34711;SDS011;20941;42.408;25.634;2024-02-23T14:07:04;21.30;;;7.28;;
34711;SDS011;20941;42.408;25.634;2024-02-23T14:09:30;17.50;;;8.00;;
34711;SDS011;20941;42.408;25.634;2024-02-23T14:12:06;11.43;;;7.07;;
34711;SDS011;20941;42.408;25.634;2024-02-23T14:14:33;15.27;;;7.60;;
34711;SDS011;20941;42.408;25.634;2024-02-23T14:17:00;25.63;;;8.90;;
34711;SDS011;20941;42.408;25.634;2024-02-23T14:19:25;22.75;;;8.32;;